Time;durP1;ratioP1;P1;durP2;ratioP2;P2;SDS_P1;SDS_P2;PMS_P1;PMS_P2;Temp;Humidity;BMP_temperature;BMP_pressure;BME280_temperature;BME280_humidity;BME280_pressure;Samples;Min_cycle;Max_cycle;Signal;HPM_P1;HPM_P2
2021/08/10 00:00:11;;;;;;;6.05;3.28;;;;;;;16.66;83.41;100355.13;5053050;28;20382;-60
2021/08/10 00:02:38;;;;;;;;;;;;;;;16.70;83.18;100356.84;5053121;28;20497;-61
2021/08/10 00:05:07;;;;;;;12.02;3.50;;;;;;;16.71;83.62;100349.22;5052287;28;19921;-61
2021/08/10 00:07:35;;;;;;;6.13;3.17;;;;;;;16.66;83.13;100349.50;5051741;28;20052;-61
2021/08/10 00:10:02;;;;;;;8.48;3.13;;;;;;;16.60;83.58;100346.13;5052196;28;20049;-61
2021/08/10 00:12:29;;;;;;;6.15;3.20;;;;;;;16.63;83.14;100340.59;5052218;28;20064;-61
2021/08/10 00:14:56;;;;;;;8.15;3.53;;;;;;;16.69;83.67;100334.69;5051392;28;20060;-61
2021/08/10 00:17:25;;;;;;;8.30;3.63;;;;;;;16.70;83.34;100339.97;5052631;28;20405;-61
2021/08/10 00:19:53;;;;;;;5.38;3.00;;;;;;;16.71;83.37;100333.16;5052526;28;20473;-61
2021/08/10 00:22:20;;;;;;;9.55;3.95;;;;;;;16.74;83.45;100338.09;5052071;28;20052;-61
2021/08/10 00:24:48;;;;;;;6.60;2.95;;;;;;;16.62;82.77;100330.50;5052167;28;20087;-61
2021/08/10 00:27:15;;;;;;;8.35;3.47;;;;;;;16.63;82.88;100339.75;5052450;28;20052;-61
2021/08/10 00:29:43;;;;;;;6.00;3.58;;;;;;;16.61;82.66;100339.31;5052167;28;20049;-61
2021/08/10 00:32:10;;;;;;;7.05;3.67;;;;;;;16.58;82.57;100345.66;5052467;28;20056;-61
2021/08/10 00:34:39;;;;;;;5.85;3.33;;;;;;;16.48;82.12;100346.97;5051745;28;20056;-61
2021/08/10 00:37:06;;;;;;;9.85;3.45;;;;;;;16.54;82.65;100345.53;5052072;28;20516;-61
2021/08/10 00:39:34;;;;;;;6.18;3.28;;;;;;;16.50;82.36;100338.19;5051906;28;20064;-61
2021/08/10 00:42:05;;;;;;;6.43;3.55;;;;;;;16.37;81.71;100341.03;5051536;28;20056;-61
2021/08/10 00:44:32;;;;;;;7.75;2.85;;;;;;;16.34;82.35;100340.97;5051115;28;20406;-61
2021/08/10 00:47:00;;;;;;;7.25;2.95;;;;;;;16.34;82.34;100336.16;5051997;28;20064;-61
2021/08/10 00:49:27;;;;;;;9.23;3.33;;;;;;;16.22;81.40;100341.81;5052098;28;20057;-61
2021/08/10 00:51:58;;;;;;;4.10;2.88;;;;;;;16.27;82.55;100338.72;5051910;28;20064;-61
2021/08/10 00:54:26;;;;;;;5.50;3.13;;;;;;;16.27;82.54;100341.53;5051502;28;20045;-62
2021/08/10 00:56:53;;;;;;;5.25;3.35;;;;;;;16.30;82.60;100348.47;5051680;28;20060;-61
2021/08/10 00:59:21;;;;;;;12.23;3.60;;;;;;;16.29;82.39;100350.44;5051980;28;20053;-61
2021/08/10 01:01:49;;;;;;;5.72;3.28;;;;;;;16.27;82.42;100346.34;5051827;28;20053;-61
2021/08/10 01:04:16;;;;;;;5.70;3.00;;;;;;;16.22;82.18;100345.44;5051112;28;20057;-60
2021/08/10 01:06:59;;;;;;;7.53;3.42;;;;;;;16.20;82.42;100339.34;5051781;28;20405;-61
2021/08/10 01:09:35;;;;;;;5.70;3.35;;;;;;;16.17;82.47;100337.25;5051957;28;20041;-60
2021/08/10 01:12:07;;;;;;;7.25;3.63;;;;;;;16.13;82.52;100339.16;5051237;28;20064;-61
2021/08/10 01:14:44;;;;;;;5.43;3.63;;;;;;;16.13;82.48;100341.16;5043409;28;20060;-61
2021/08/10 01:17:19;;;;;;;8.55;4.22;;;;;;;16.08;82.46;100344.19;5032101;28;20064;-60
2021/08/10 01:20:10;;;;;;;8.20;4.13;;;;;;;16.09;82.54;100338.22;5033546;28;20045;-61
2021/08/10 01:22:41;;;;;;;8.02;4.00;;;;;;;16.02;82.15;100346.41;5050242;28;20502;-61
2021/08/10 01:25:24;;;;;;;7.03;3.88;;;;;;;15.96;82.23;100343.03;5050885;28;20417;-61
2021/08/10 01:28:01;;;;;;;6.57;4.22;;;;;;;15.90;82.62;100343.66;5051638;28;20474;-61
2021/08/10 01:30:35;;;;;;;7.35;4.13;;;;;;;15.87;82.52;100345.16;5052207;28;20045;-61
2021/08/10 01:33:05;;;;;;;6.18;3.47;;;;;;;15.80;82.86;100351.38;5051380;28;20414;-61
2021/08/10 01:35:36;;;;;;;6.85;3.70;;;;;;;15.77;82.96;100346.47;5050970;28;20056;-60
2021/08/10 01:38:05;;;;;;;7.95;3.92;;;;;;;15.79;82.78;100343.28;5051476;28;20080;-61
2021/08/10 01:40:32;;;;;;;;;;;;;;;15.75;83.47;100354.44;5052101;28;20057;-61
2021/08/10 01:43:04;;;;;;;8.93;4.18;;;;;;;15.68;82.80;100342.91;5051842;28;19943;-61
2021/08/10 01:45:37;;;;;;;6.78;3.83;;;;;;;15.60;83.25;100341.06;5050769;28;20049;-61
2021/08/10 01:48:08;;;;;;;7.63;3.58;;;;;;;15.62;83.26;100335.91;5051828;28;20053;-61
2021/08/10 01:50:36;;;;;;;7.15;3.78;;;;;;;15.63;83.53;100340.38;5050860;28;20049;-61
2021/08/10 01:53:05;;;;;;;6.57;3.50;;;;;;;15.64;83.36;100325.13;5052863;28;20053;-61
2021/08/10 01:55:33;;;;;;;7.15;3.92;;;;;;;15.55;83.20;100328.06;5054857;28;20053;-61
2021/08/10 01:58:02;;;;;;;6.55;3.60;;;;;;;15.52;83.08;100327.97;5055233;28;20486;-61
2021/08/10 02:00:30;;;;;;;7.57;3.60;;;;;;;15.53;83.41;100329.59;5054433;28;20053;-61
2021/08/10 02:02:59;;;;;;;8.35;3.90;;;;;;;15.53;83.27;100332.41;5054330;28;20053;-61
2021/08/10 02:05:29;;;;;;;6.85;3.53;;;;;;;15.51;83.09;100332.75;5054301;28;20543;-61
2021/08/10 02:07:58;;;;;;;7.00;3.35;;;;;;;15.51;82.93;100326.31;5055040;28;20063;-61
2021/08/10 02:10:26;;;;;;;10.10;4.05;;;;;;;15.55;83.06;100332.88;5055296;28;20397;-61
2021/08/10 02:12:54;;;;;;;6.97;3.65;;;;;;;15.49;83.01;100339.91;5054460;28;20053;-61
2021/08/10 02:15:22;;;;;;;8.48;4.13;;;;;;;15.46;82.81;100335.00;5053801;28;20513;-61
2021/08/10 02:17:50;;;;;;;7.70;3.75;;;;;;;15.45;82.83;100331.34;5054050;28;20049;-61
2021/08/10 02:20:17;;;;;;;6.80;3.95;;;;;;;15.46;82.62;100335.81;5054562;28;20044;-61
2021/08/10 02:22:48;;;;;;;7.03;3.60;;;;;;;15.46;82.76;100335.00;5054752;28;20060;-61
2021/08/10 02:25:20;;;;;;;7.28;4.00;;;;;;;15.39;82.79;100318.72;5053899;28;20088;-61
2021/08/10 02:27:51;;;;;;;6.90;3.88;;;;;;;15.38;83.17;100320.72;5034647;28;20060;-61
2021/08/10 02:30:22;;;;;;;6.80;3.80;;;;;;;15.35;83.08;100314.97;5034162;28;20494;-61
2021/08/10 02:32:50;;;;;;;9.07;3.88;;;;;;;15.37;83.62;100318.25;5043659;28;20064;-61
2021/08/10 02:35:21;;;;;;;5.07;3.15;;;;;;;15.31;83.53;100314.88;5054949;28;20053;-60
2021/08/10 02:37:51;;;;;;;9.27;3.70;;;;;;;15.32;83.68;100322.13;5054680;28;20053;-60
2021/08/10 02:40:20;;;;;;;6.35;3.92;;;;;;;15.35;83.75;100315.81;5054772;28;20053;-61
2021/08/10 02:42:51;;;;;;;7.53;3.88;;;;;;;15.41;83.84;100311.59;5054305;28;20053;-57
2021/08/10 02:45:18;;;;;;;8.30;4.13;;;;;;;15.43;84.08;100322.47;5053908;28;20053;-60
2021/08/10 02:47:52;;;;;;;5.55;3.65;;;;;;;15.44;84.08;100318.50;5054287;28;20402;-60
2021/08/10 02:50:20;;;;;;;7.50;3.80;;;;;;;15.50;83.88;100313.47;5054032;28;20049;-60
2021/08/10 02:52:48;;;;;;;8.75;3.90;;;;;;;15.51;83.67;100320.72;5054191;28;20505;-60
2021/08/10 02:55:19;;;;;;;7.63;3.97;;;;;;;15.47;83.34;100319.78;5053219;28;20053;-60
2021/08/10 02:57:53;;;;;;;7.43;3.80;;;;;;;15.51;82.92;100323.53;5053946;28;20049;-59
2021/08/10 03:00:22;;;;;;;7.95;3.85;;;;;;;15.52;83.20;100328.78;5054169;28;20052;-60
2021/08/10 03:02:57;;;;;;;5.65;3.50;;;;;;;15.51;83.11;100320.72;5053377;28;20057;-60
2021/08/10 03:05:28;;;;;;;9.00;3.83;;;;;;;15.55;83.37;100310.41;5045486;28;20057;-61
2021/08/10 03:07:57;;;;;;;5.85;3.55;;;;;;;15.58;83.14;100315.31;5045879;28;20055;-60
2021/08/10 03:10:30;;;;;;;5.68;3.53;;;;;;;15.60;83.26;100313.81;5053868;28;20049;-61
2021/08/10 03:13:02;;;;;;;9.35;4.05;;;;;;;15.61;83.13;100321.06;5053321;28;20060;-60
2021/08/10 03:15:33;;;;;;;8.38;4.32;;;;;;;15.66;83.47;100322.81;5053460;28;20061;-60
2021/08/10 03:18:06;;;;;;;9.48;5.18;;;;;;;15.70;83.48;100322.91;5053453;28;20053;-60
2021/08/10 03:20:36;;;;;;;5.93;3.92;;;;;;;15.78;83.42;100324.81;5054013;28;20063;-61
2021/08/10 03:23:04;;;;;;;5.80;3.90;;;;;;;15.83;83.38;100328.22;5053576;28;20400;-60
2021/08/10 03:25:34;;;;;;;7.05;4.00;;;;;;;15.90;83.28;100326.78;5053398;28;20075;-60
2021/08/10 03:28:02;;;;;;;6.63;3.88;;;;;;;15.93;83.09;100328.88;5053477;28;20380;-60
2021/08/10 03:30:33;;;;;;;5.72;3.80;;;;;;;15.98;83.14;100328.63;5053819;28;20057;-60
2021/08/10 03:33:05;;;;;;;7.57;4.22;;;;;;;16.01;83.08;100333.56;5053496;28;20053;-59
2021/08/10 03:35:32;;;;;;;8.50;3.90;;;;;;;16.05;82.96;100334.47;5052018;28;20521;-60
2021/08/10 03:38:00;;;;;;;6.28;3.80;;;;;;;16.10;82.92;100339.03;5052544;28;20049;-59
2021/08/10 03:40:28;;;;;;;6.38;3.70;;;;;;;16.14;83.04;100346.38;5053364;28;20053;-60
2021/08/10 03:42:58;;;;;;;6.13;3.80;;;;;;;16.19;82.83;100360.22;5053105;28;20398;-60
2021/08/10 03:45:26;;;;;;;6.55;3.45;;;;;;;16.10;82.36;100367.13;5051437;28;20402;-60
2021/08/10 03:47:55;;;;;;;6.60;3.95;;;;;;;16.15;82.62;100367.72;5053184;28;20421;-60
2021/08/10 03:50:22;;;;;;;10.38;4.15;;;;;;;16.19;82.69;100371.44;5053372;28;20516;-61
2021/08/10 03:52:51;;;;;;;7.95;4.10;;;;;;;16.21;82.94;100371.91;5053130;28;20052;-60
2021/08/10 03:55:18;;;;;;;7.75;4.18;;;;;;;16.24;82.56;100382.44;5052721;28;20052;-60
2021/08/10 03:57:47;;;;;;;8.15;3.95;;;;;;;16.28;82.47;100392.97;5053019;28;20049;-60
2021/08/10 04:00:17;;;;;;;7.13;4.20;;;;;;;16.28;82.58;100392.97;5053433;28;20060;-57
2021/08/10 04:02:44;;;;;;;6.20;3.80;;;;;;;16.33;82.56;100392.72;5052617;28;20467;-59
2021/08/10 04:05:13;;;;;;;6.90;3.33;;;;;;;16.21;82.27;100388.78;5051660;28;20045;-60
2021/08/10 04:07:42;;;;;;;6.75;4.13;;;;;;;16.27;82.40;100397.75;5052894;28;20049;-60
2021/08/10 04:10:11;;;;;;;7.55;3.80;;;;;;;16.29;82.75;100405.84;5052959;28;20406;-56
2021/08/10 04:12:38;;;;;;;8.32;4.80;;;;;;;16.20;82.37;100409.59;5053049;28;20399;-58
2021/08/10 04:15:07;;;;;;;7.95;4.20;;;;;;;16.08;83.08;100409.63;5050196;28;20045;-59
2021/08/10 04:17:38;;;;;;;7.18;3.78;;;;;;;15.91;83.85;100409.88;5052503;28;20053;-59
2021/08/10 04:20:07;;;;;;;6.32;4.60;;;;;;;16.00;84.54;100411.41;5051535;28;20048;-59
2021/08/10 04:22:34;;;;;;;9.35;5.82;;;;;;;16.06;84.14;100419.56;5052480;28;20067;-61
2021/08/10 04:25:01;;;;;;;8.05;6.03;;;;;;;15.89;84.78;100423.47;5051663;28;20057;-60
2021/08/10 04:27:29;;;;;;;15.35;8.52;;;;;;;15.75;85.72;100426.63;5052366;28;20060;-58
2021/08/10 04:29:56;;;;;;;15.82;8.55;;;;;;;15.77;86.88;100429.88;5052012;28;20490;-59
2021/08/10 04:32:24;;;;;;;12.38;5.88;;;;;;;15.65;88.07;100421.44;5052426;28;20049;-60
2021/08/10 04:34:52;;;;;;;10.23;6.30;;;;;;;15.64;89.35;100429.03;5051937;28;20409;-57
2021/08/10 04:37:20;;;;;;;49.88;7.63;;;;;;;15.37;94.40;100420.13;5048076;28;20053;-58
2021/08/10 04:39:47;;;;;;;26.58;6.80;;;;;;;15.15;98.84;100420.53;5051744;28;20057;-60
2021/08/10 04:42:14;;;;;;;51.58;8.85;;;;;;;15.29;99.57;100421.03;5051309;28;20056;-59
2021/08/10 04:44:42;;;;;;;15.93;7.13;;;;;;;15.21;98.21;100410.75;5052032;28;20478;-60
2021/08/10 04:47:09;;;;;;;12.65;8.05;;;;;;;15.14;99.80;100404.84;5052096;28;20056;-60
2021/08/10 04:49:36;;;;;;;20.85;8.82;;;;;;;15.10;98.93;100401.09;5052479;28;20044;-60
2021/08/10 04:52:05;;;;;;;46.83;9.40;;;;;;;15.10;98.22;100385.13;5050847;28;20061;-60
2021/08/10 04:54:33;;;;;;;18.70;8.50;;;;;;;15.06;97.30;100366.53;5031609;28;20054;-57
2021/08/10 04:57:01;;;;;;;15.82;8.07;;;;;;;15.08;96.45;100348.19;5031627;28;20076;-58
2021/08/10 04:59:28;;;;;;;13.60;7.00;;;;;;;15.10;94.41;100347.81;5032044;28;20050;-56
2021/08/10 05:01:56;;;;;;;10.38;6.35;;;;;;;15.16;93.25;100340.81;5031692;28;20050;-60
2021/08/10 05:04:23;;;;;;;13.75;6.80;;;;;;;15.19;92.20;100348.53;5032021;28;20053;-59
2021/08/10 05:06:51;;;;;;;10.10;5.85;;;;;;;15.23;91.36;100352.28;5031858;28;20049;-59
2021/08/10 05:09:20;;;;;;;10.70;6.07;;;;;;;15.26;90.31;100348.75;5038146;28;20052;-57
2021/08/10 05:11:48;;;;;;;9.17;5.87;;;;;;;15.36;89.43;100342.69;5049409;28;20045;-58
2021/08/10 05:14:15;;;;;;;9.55;6.43;;;;;;;15.44;89.07;100346.56;5051935;28;20506;-58
2021/08/10 05:16:42;;;;;;;9.57;6.30;;;;;;;15.50;88.18;100353.59;5050784;28;20060;-60
2021/08/10 05:19:09;;;;;;;8.27;5.88;;;;;;;15.50;88.14;100345.16;5051637;28;20048;-60
2021/08/10 05:21:37;;;;;;;9.07;5.88;;;;;;;15.48;87.74;100344.69;5051755;28;20049;-60
2021/08/10 05:24:04;;;;;;;10.70;5.70;;;;;;;15.46;87.89;100352.66;5049769;28;20056;-60
2021/08/10 05:26:33;;;;;;;8.30;5.30;;;;;;;15.45;87.80;100353.00;5051969;28;20056;-60
2021/08/10 05:29:01;;;;;;;10.77;6.07;;;;;;;15.45;87.99;100361.41;5055102;28;20049;-57
2021/08/10 05:31:30;;;;;;;9.95;5.82;;;;;;;15.47;87.66;100365.50;5054513;28;20057;-59
2021/08/10 05:33:57;;;;;;;;;;;;;;;15.51;89.41;100366.44;5055778;28;20060;-60
2021/08/10 05:36:25;;;;;;;10.40;6.07;;;;;;;15.56;87.75;100362.56;5055315;28;19920;-60
2021/08/10 05:38:53;;;;;;;9.27;5.78;;;;;;;15.55;86.97;100366.56;5035012;28;20045;-60
2021/08/10 05:41:21;;;;;;;11.15;5.95;;;;;;;15.65;86.64;100365.28;5035626;28;20049;-58
2021/08/10 05:43:51;;;;;;;9.85;5.53;;;;;;;15.72;85.90;100360.72;5049812;28;20052;-60
2021/08/10 05:46:18;;;;;;;11.10;5.50;;;;;;;15.73;85.81;100359.59;5055552;28;20417;-60
2021/08/10 05:48:45;;;;;;;10.13;5.80;;;;;;;15.72;86.15;100359.94;5054241;28;20053;-60
2021/08/10 05:51:13;;;;;;;8.48;5.50;;;;;;;15.76;86.14;100364.47;5055545;28;20063;-59
2021/08/10 05:53:40;;;;;;;6.47;4.43;;;;;;;15.84;85.59;100359.91;5055026;28;20488;-60
2021/08/10 05:56:07;;;;;;;7.10;4.60;;;;;;;15.95;85.65;100368.69;5055018;28;20079;-58
2021/08/10 05:58:35;;;;;;;8.27;4.93;;;;;;;16.02;85.23;100368.88;5054160;28;20041;-58
2021/08/10 06:01:05;;;;;;;7.07;4.53;;;;;;;16.15;85.07;100366.91;5053066;28;20041;-58
2021/08/10 06:03:32;;;;;;;6.65;4.50;;;;;;;16.27;84.91;100374.47;5054952;28;20367;-58
2021/08/10 06:06:00;;;;;;;6.93;4.32;;;;;;;16.43;84.32;100372.53;5054573;28;20048;-59
2021/08/10 06:08:28;;;;;;;7.82;4.90;;;;;;;16.47;84.17;100367.03;5053721;28;20049;-60
2021/08/10 06:10:55;;;;;;;6.70;4.40;;;;;;;16.55;84.18;100369.69;5053912;28;20053;-58
2021/08/10 06:13:22;;;;;;;7.93;5.00;;;;;;;16.67;83.80;100370.81;5053808;28;20045;-59
2021/08/10 06:15:49;;;;;;;5.90;4.10;;;;;;;16.70;83.46;100361.66;5045221;28;20060;-60
2021/08/10 06:18:18;;;;;;;6.00;4.53;;;;;;;16.79;83.25;100367.94;5054545;28;20060;-60
2021/08/10 06:20:46;;;;;;;6.53;4.30;;;;;;;16.79;83.33;100374.38;5054589;28;20060;-60
2021/08/10 06:23:13;;;;;;;7.03;4.30;;;;;;;16.79;83.34;100373.56;5053943;28;20074;-60
2021/08/10 06:25:43;;;;;;;5.60;3.90;;;;;;;16.75;82.33;100372.66;5053707;28;20045;-60
2021/08/10 06:28:11;;;;;;;7.85;4.43;;;;;;;16.95;82.60;100371.63;5053950;28;20247;-60
2021/08/10 06:30:38;;;;;;;6.35;4.32;;;;;;;16.99;82.26;100371.75;5054353;28;20049;-60
2021/08/10 06:33:05;;;;;;;6.65;4.35;;;;;;;17.09;82.42;100364.75;5054230;28;20369;-60
2021/08/10 06:35:34;;;;;;;5.82;3.80;;;;;;;17.15;81.81;100378.19;5041279;28;20049;-58
2021/08/10 06:38:01;;;;;;;5.13;3.37;;;;;;;17.21;81.56;100364.66;5033825;28;20395;-60
2021/08/10 06:40:29;;;;;;;5.60;3.17;;;;;;;17.21;80.82;100367.50;5049448;28;20045;-60
2021/08/10 06:42:56;;;;;;;5.20;3.40;;;;;;;17.04;79.58;100361.03;5054283;28;20124;-60
2021/08/10 06:45:23;;;;;;;6.28;3.20;;;;;;;17.01;80.88;100367.38;5053463;28;20465;-60
2021/08/10 06:47:52;;;;;;;6.88;4.30;;;;;;;17.27;80.95;100366.03;5054498;28;20473;-60
2021/08/10 06:50:20;;;;;;;5.43;3.10;;;;;;;17.33;80.57;100373.03;5050046;28;20380;-60
2021/08/10 06:52:48;;;;;;;4.40;3.13;;;;;;;17.41;80.45;100371.22;5046474;28;20529;-59
2021/08/10 06:55:16;;;;;;;5.83;4.27;;;;;;;17.45;81.14;100363.69;5040881;28;20055;-59
2021/08/10 06:57:43;;;;;;;5.15;3.65;;;;;;;17.48;81.35;100367.78;5046311;28;20061;-60
2021/08/10 07:00:11;;;;;;;5.47;4.00;;;;;;;17.63;81.29;100378.19;5045423;28;20056;-58
2021/08/10 07:02:39;;;;;;;4.72;3.88;;;;;;;17.73;81.04;100376.84;5050376;28;20049;-60
2021/08/10 07:05:07;;;;;;;5.07;3.35;;;;;;;17.77;79.32;100380.56;5050545;28;20573;-60
2021/08/10 07:07:34;;;;;;;4.47;3.10;;;;;;;17.82;79.43;100386.75;5049925;28;20052;-59
2021/08/10 07:10:04;;;;;;;5.00;3.20;;;;;;;18.03;79.32;100392.06;5050601;28;20052;-58
2021/08/10 07:12:31;;;;;;;4.00;2.75;;;;;;;18.11;77.90;100381.78;5050838;28;20053;-60
2021/08/10 07:14:59;;;;;;;4.30;2.70;;;;;;;18.13;77.87;100387.88;5050864;28;20060;-60
2021/08/10 07:17:26;;;;;;;5.60;3.00;;;;;;;18.15;77.57;100379.88;5050321;28;20178;-59
2021/08/10 07:19:53;;;;;;;4.03;2.83;;;;;;;18.26;78.03;100392.19;5049893;28;20059;-60
2021/08/10 07:22:20;;;;;;;4.78;3.13;;;;;;;18.39;77.22;100398.50;5049472;28;20406;-61
2021/08/10 07:24:48;;;;;;;6.40;2.72;;;;;;;18.62;75.04;100390.13;5046236;28;20410;-61
2021/08/10 07:27:16;;;;;;;5.47;3.00;;;;;;;19.04;75.50;100382.94;5051068;28;20498;-61
2021/08/10 07:29:43;;;;;;;5.17;2.80;;;;;;;19.59;71.84;100368.56;5048174;28;20049;-61
2021/08/10 07:32:11;;;;;;;3.85;2.90;;;;;;;20.19;72.00;100374.34;5043462;28;20471;-61
2021/08/10 07:34:39;;;;;;;3.83;2.72;;;;;;;20.43;67.97;100378.75;5047821;28;20453;-61
2021/08/10 07:37:06;;;;;;;4.60;2.80;;;;;;;21.14;68.12;100374.31;5050527;28;20067;-61
2021/08/10 07:39:34;;;;;;;4.85;2.47;;;;;;;21.74;66.31;100365.56;5044030;28;20063;-61
2021/08/10 07:42:01;;;;;;;5.25;2.90;;;;;;;22.21;65.20;100371.53;5052754;28;20119;-61
2021/08/10 07:44:30;;;;;;;3.67;2.40;;;;;;;22.56;62.99;100381.50;5052206;28;20409;-61
2021/08/10 07:46:58;;;;;;;4.40;2.30;;;;;;;22.68;60.36;100381.16;5053267;28;20061;-60
2021/08/10 07:49:25;;;;;;;4.25;2.50;;;;;;;23.10;60.96;100391.03;5053030;28;20055;-60
2021/08/10 07:51:52;;;;;;;4.03;2.25;;;;;;;22.77;60.42;100386.44;5052416;28;20057;-60
2021/08/10 07:54:19;;;;;;;4.40;2.65;;;;;;;23.38;60.06;100369.56;5052254;28;20049;-61
2021/08/10 07:56:47;;;;;;;5.43;2.55;;;;;;;24.06;58.52;100366.69;5044711;28;20058;-60
2021/08/10 07:59:14;;;;;;;3.90;2.60;;;;;;;24.38;58.29;100366.63;5033149;28;20060;-60
2021/08/10 08:01:43;;;;;;;3.80;2.83;;;;;;;25.72;54.82;100364.63;5034067;28;20877;-61
2021/08/10 08:04:10;;;;;;;4.15;2.17;;;;;;;25.51;54.27;100369.31;5049842;28;20056;-61
2021/08/10 08:06:38;;;;;;;3.13;2.40;;;;;;;24.86;54.79;100365.22;5053274;28;20064;-61
2021/08/10 08:09:05;;;;;;;4.18;2.38;;;;;;;23.94;55.95;100384.19;5049181;28;20057;-61
2021/08/10 08:11:33;;;;;;;3.53;2.55;;;;;;;24.50;55.36;100373.91;5053390;28;20064;-61
2021/08/10 08:14:00;;;;;;;4.50;2.83;;;;;;;23.64;54.37;100382.56;5051586;28;20067;-62
2021/08/10 08:16:27;;;;;;;4.68;2.08;;;;;;;24.31;52.01;100375.97;5053407;28;20052;-62
2021/08/10 08:18:56;;;;;;;3.10;2.25;;;;;;;24.53;49.74;100370.25;5039931;28;20056;-62
2021/08/10 08:21:25;;;;;;;4.15;2.28;;;;;;;25.49;52.28;100368.91;5032943;28;20060;-62
2021/08/10 08:23:52;;;;;;;3.75;2.35;;;;;;;24.56;51.26;100372.28;5043454;28;20057;-62
2021/08/10 08:26:21;;;;;;;3.05;2.13;;;;;;;24.34;50.87;100370.69;5052769;28;20048;-62
2021/08/10 08:28:49;;;;;;;3.63;2.15;;;;;;;24.47;51.76;100381.22;5051898;28;20053;-62
2021/08/10 08:31:16;;;;;;;4.45;2.50;;;;;;;24.19;53.56;100372.75;5052255;28;20057;-62
2021/08/10 08:33:44;;;;;;;5.18;2.53;;;;;;;24.62;50.10;100366.97;5047299;28;20497;-62
2021/08/10 08:36:12;;;;;;;3.88;2.45;;;;;;;25.90;50.73;100371.00;5052233;28;20053;-62
2021/08/10 08:38:39;;;;;;;5.03;2.00;;;;;;;26.16;48.91;100371.56;5051828;28;20063;-62
2021/08/10 08:41:07;;;;;;;4.18;2.55;;;;;;;26.83;48.15;100379.78;5052625;28;20395;-62
2021/08/10 08:43:34;;;;;;;5.20;2.15;;;;;;;26.20;47.37;100383.75;5042275;28;20050;-62
2021/08/10 08:46:02;;;;;;;3.78;2.20;;;;;;;25.50;49.88;100393.34;5036266;28;20045;-62
2021/08/10 08:48:32;;;;;;;3.83;2.55;;;;;;;25.77;48.89;100389.06;5051927;28;20048;-61
2021/08/10 08:51:01;;;;;;;3.22;2.00;;;;;;;26.28;49.17;100384.50;5052020;28;20045;-61
2021/08/10 08:53:30;;;;;;;;;;;;;;;26.11;45.94;100381.41;5043718;28;20049;-61
2021/08/10 08:55:57;;;;;;;3.38;2.05;;;;;;;25.78;47.12;100385.75;5032801;28;19928;-61
2021/08/10 08:58:24;;;;;;;3.00;2.10;;;;;;;25.61;49.03;100386.75;5037126;28;20060;-61
2021/08/10 09:00:52;;;;;;;4.00;2.35;;;;;;;25.59;48.94;100380.63;5051231;28;20049;-61
2021/08/10 09:03:19;;;;;;;3.72;2.40;;;;;;;25.66;48.96;100386.28;5046945;28;20057;-61
2021/08/10 09:05:47;;;;;;;5.30;2.20;;;;;;;25.79;49.14;100375.19;5053164;28;20056;-61
2021/08/10 09:08:31;;;;;;;3.28;2.25;;;;;;;25.83;47.90;100379.63;5047733;28;20414;-61
2021/08/10 09:11:00;;;;;;;3.53;2.17;;;;;;;26.16;48.25;100377.28;5036150;28;20049;-61
2021/08/10 09:13:28;;;;;;;3.88;2.33;;;;;;;26.47;46.35;100371.63;5048941;28;20048;-61
2021/08/10 09:16:00;;;;;;;3.47;2.55;;;;;;;26.77;46.07;100368.00;5056449;28;20053;-61
2021/08/10 09:18:27;;;;;;;4.55;2.80;;;;;;;26.89;46.30;100361.72;5047061;28;20052;-61
2021/08/10 09:21:06;;;;;;;3.92;2.30;;;;;;;26.95;43.05;100359.19;5036140;28;20049;-61
2021/08/10 09:23:42;;;;;;;;;;;;;;;27.99;39.59;100359.59;5039027;28;20072;-61
2021/08/10 09:26:10;;;;;;;2.95;2.15;;;;;;;28.11;42.37;100359.75;5055482;28;19921;-61
2021/08/10 09:28:38;;;;;;;3.70;2.30;;;;;;;27.35;43.25;100353.72;5055131;28;20154;-61
2021/08/10 09:31:31;;;;;;;4.40;2.70;;;;;;;29.05;39.30;100344.31;5056183;28;20066;-61
2021/08/10 09:34:00;;;;;;;3.58;2.47;;;;;;;29.65;38.21;100349.88;5052303;28;20102;-61
2021/08/10 09:36:28;;;;;;;3.05;2.35;;;;;;;29.12;39.53;100355.63;5055953;28;20049;-60
2021/08/10 09:38:58;;;;;;;3.17;2.43;;;;;;;28.77;39.75;100342.91;5054287;28;20052;-61
2021/08/10 09:41:26;;;;;;;3.28;2.38;;;;;;;29.81;38.48;100354.78;5055029;28;20491;-62
2021/08/10 09:44:08;;;;;;;3.38;2.10;;;;;;;29.55;36.77;100348.88;5043422;28;20060;-61
2021/08/10 09:46:37;;;;;;;3.78;2.50;;;;;;;28.35;39.78;100348.28;5036079;28;20486;-62
2021/08/10 09:49:06;;;;;;;;;;;;;;;28.98;37.73;100343.66;5035357;28;20414;-61
2021/08/10 09:51:38;;;;;;;3.97;2.50;;;;;;;28.46;39.33;100351.72;5035605;28;20285;-61
2021/08/10 09:54:10;;;;;;;3.67;2.45;;;;;;;28.16;39.57;100347.03;5041109;28;20049;-61
2021/08/10 09:56:43;;;;;;;4.32;2.50;;;;;;;27.85;40.99;100358.59;5055215;28;20061;-61
2021/08/10 09:59:11;;;;;;;5.10;2.60;;;;;;;27.56;41.86;100352.56;5054585;28;20369;-61
2021/08/10 10:01:40;;;;;;;4.45;2.60;;;;;;;27.43;41.17;100363.00;5054499;28;20065;-60
2021/08/10 10:04:17;;;;;;;;;;;;;;;27.10;39.93;100363.47;5054737;28;20044;-61
2021/08/10 10:06:46;;;;;;;3.17;2.40;;;;;;;26.63;42.43;100366.16;5053427;28;19929;-61
2021/08/10 10:09:15;;;;;;;4.90;2.50;;;;;;;26.43;43.30;100351.66;5046471;28;20061;-61
2021/08/10 10:11:45;;;;;;;3.88;2.42;;;;;;;26.46;42.61;100353.69;5054246;28;20056;-61
2021/08/10 10:14:12;;;;;;;3.88;2.28;;;;;;;26.11;43.04;100352.06;5053081;28;20071;-61
2021/08/10 10:16:42;;;;;;;3.78;2.78;;;;;;;25.36;43.66;100342.09;5042608;28;20049;-61
2021/08/10 10:19:11;;;;;;;4.60;2.50;;;;;;;26.16;44.16;100343.00;5034858;28;20060;-61
2021/08/10 10:21:41;;;;;;;4.10;2.60;;;;;;;26.39;43.42;100339.47;5045260;28;20485;-61
2021/08/10 10:24:11;;;;;;;3.70;2.85;;;;;;;27.24;41.54;100342.47;5046850;28;20049;-61
2021/08/10 10:26:45;;;;;;;4.38;2.50;;;;;;;27.29;42.68;100335.44;5054012;28;20501;-61
2021/08/10 10:29:15;;;;;;;3.67;2.42;;;;;;;27.04;42.79;100342.31;5046546;28;20056;-62
2021/08/10 10:31:43;;;;;;;3.85;2.78;;;;;;;26.99;43.01;100337.09;5048607;28;20045;-61
2021/08/10 10:34:13;;;;;;;4.22;2.53;;;;;;;26.56;43.12;100345.41;5046790;28;20053;-61
2021/08/10 10:36:42;;;;;;;4.75;2.72;;;;;;;26.49;43.69;100349.16;5046658;28;20056;-61
2021/08/10 10:39:11;;;;;;;4.97;2.63;;;;;;;26.28;44.44;100347.38;5041754;28;20049;-61
2021/08/10 10:41:40;;;;;;;4.40;2.63;;;;;;;26.09;44.59;100349.63;5046448;28;20396;-61
2021/08/10 10:44:09;;;;;;;5.80;2.55;;;;;;;25.94;45.74;100351.00;5044994;28;20049;-61
2021/08/10 10:46:38;;;;;;;;;;;;;;;26.06;43.72;100350.47;5046485;28;20057;-61
2021/08/10 10:49:06;;;;;;;5.10;2.88;;;;;;;26.49;43.34;100332.03;5043823;28;19932;-61
2021/08/10 10:51:35;;;;;;;4.47;3.00;;;;;;;27.80;41.50;100324.72;5046238;28;20045;-60
2021/08/10 10:54:29;;;;;;;4.25;2.90;;;;;;;29.52;36.75;100328.84;5044003;28;20052;-61
2021/08/10 10:56:59;;;;;;;3.53;2.60;;;;;;;30.41;36.01;100330.59;5038070;28;20053;-60
2021/08/10 10:59:35;;;;;;;3.72;2.70;;;;;;;30.95;34.05;100324.88;5039657;28;20387;-61
2021/08/10 11:02:21;;;;;;;3.58;2.55;;;;;;;32.06;30.86;100336.84;5042022;28;20406;-61
2021/08/10 11:05:22;;;;;;;4.57;2.85;;;;;;;32.29;31.42;100329.81;5053983;28;20449;-61
2021/08/10 11:07:53;;;;;;;4.25;2.58;;;;;;;31.63;31.28;100341.22;5053711;28;20056;-61
2021/08/10 11:10:45;;;;;;;4.50;3.05;;;;;;;30.88;32.58;100324.28;5054265;28;20057;-61
2021/08/10 11:13:37;;;;;;;4.68;2.80;;;;;;;30.18;33.93;100328.78;5047380;28;20088;-61
2021/08/10 11:16:06;;;;;;;4.32;3.17;;;;;;;29.80;34.54;100332.25;5045226;28;20068;-61
2021/08/10 11:18:33;;;;;;;4.40;2.90;;;;;;;29.54;35.31;100332.88;5042064;28;20061;-61
2021/08/10 11:21:21;;;;;;;6.10;3.53;;;;;;;29.61;34.85;100334.78;5033901;28;20391;-61
2021/08/10 11:23:48;;;;;;;4.90;3.20;;;;;;;29.70;35.78;100334.97;5044439;28;20053;-61
2021/08/10 11:26:42;;;;;;;4.07;2.90;;;;;;;29.43;35.74;100331.56;5053572;28;20397;-60
2021/08/10 11:29:42;;;;;;;4.05;3.03;;;;;;;28.50;38.03;100337.34;5038410;28;20060;-60
2021/08/10 11:32:39;;;;;;;4.07;3.03;;;;;;;28.23;38.08;100340.34;5041297;28;20049;-60
2021/08/10 11:35:28;;;;;;;4.03;3.22;;;;;;;27.53;39.03;100342.00;5030496;28;20049;-60
2021/08/10 11:38:23;;;;;;;4.88;3.50;;;;;;;26.80;38.53;100341.44;5035991;28;20076;-60